createdAt,value
2022-10-14T00:00:54.619Z,50.92
2022-10-14T00:05:04.605Z,54.30
2022-10-14T00:09:08.736Z,45.08
2022-10-14T00:13:10.451Z,45.90
2022-10-14T00:17:12.263Z,55.03
2022-10-14T00:21:14.245Z,53.92
2022-10-14T00:25:16.121Z,50.35
2022-10-14T00:29:19.038Z,48.70
2022-10-14T00:33:21.486Z,47.92
2022-10-14T00:37:23.815Z,49.85
2022-10-14T00:41:31.920Z,45.03
2022-10-14T00:45:34.786Z,62.10
2022-10-14T00:49:40.436Z,42.65
2022-10-14T00:53:43.678Z,48.05
2022-10-14T00:57:45.956Z,55.45
2022-10-14T01:01:47.936Z,57.25
2022-10-14T01:06:22.854Z,50.72
2022-10-14T01:10:43.596Z,59.55
2022-10-14T01:14:51.711Z,54.05
2022-10-14T01:19:13.336Z,58.22
2022-10-14T01:23:40.490Z,55.60
2022-10-14T01:27:48.332Z,46.90
2022-10-14T01:32:02.647Z,60.45
2022-10-14T01:36:11.042Z,48.08
2022-10-14T01:44:23.231Z,55.40
2022-10-14T01:48:31.139Z,50.42
2022-10-14T01:52:38.510Z,48.63
2022-10-14T01:56:43.177Z,49.07
2022-10-14T02:00:47.829Z,49.13
2022-10-14T02:04:49.810Z,45.28
2022-10-14T02:09:07.407Z,50.17
2022-10-14T02:13:28.329Z,41.33
2022-10-14T02:17:42.980Z,60.92
2022-10-14T02:22:00.273Z,55.37
2022-10-14T02:26:03.938Z,85.47
2022-10-14T02:30:07.657Z,93.38
2022-10-14T02:34:12.776Z,89.75
2022-10-14T02:38:15.816Z,84.22
2022-10-14T02:42:17.813Z,77.78
2022-10-14T02:46:21.630Z,53.97
2022-10-14T02:50:23.412Z,57.90
2022-10-14T02:54:26.941Z,56.17
2022-10-14T02:58:28.711Z,61.13
2022-10-14T03:02:31.891Z,56.58
2022-10-14T03:06:34.263Z,69.13
2022-10-14T03:10:36.330Z,49.20
2022-10-14T03:14:38.116Z,53.78
2022-10-14T03:18:42.157Z,55.60
2022-10-14T03:22:54.295Z,52.33
2022-10-14T03:26:57.567Z,52.78
2022-10-14T03:31:00.935Z,63.35
2022-10-14T03:35:17.765Z,51.38
2022-10-14T03:39:22.229Z,56.35
2022-10-14T03:43:26.197Z,56.47
2022-10-14T03:47:32.304Z,66.05
2022-10-14T03:51:35.574Z,75.93
2022-10-14T03:55:47.752Z,59.72
2022-10-14T03:59:49.661Z,57.10
2022-10-14T04:03:52.213Z,60.85
2022-10-14T04:07:54.131Z,55.60
2022-10-14T04:11:59.643Z,66.97
2022-10-14T04:16:20.279Z,60.55
2022-10-14T04:20:37.101Z,55.00
2022-10-14T04:24:39.383Z,62.92
2022-10-14T04:28:42.444Z,60.88
2022-10-14T04:32:52.109Z,71.28
2022-10-14T04:36:54.060Z,61.55
2022-10-14T04:41:12.476Z,65.00
2022-10-14T04:45:20.578Z,58.70
2022-10-14T04:53:48.778Z,58.00
2022-10-14T04:58:04.237Z,69.78
2022-10-14T05:02:13.006Z,60.17
2022-10-14T05:06:28.399Z,62.08
2022-10-14T05:10:31.427Z,69.35
2022-10-14T05:14:35.474Z,63.15
2022-10-14T05:18:51.451Z,63.42
2022-10-14T05:22:53.656Z,72.43
2022-10-14T05:26:55.275Z,65.88
2022-10-14T05:30:57.311Z,61.78
2022-10-14T05:34:59.345Z,74.30
2022-10-14T05:39:08.501Z,70.05
2022-10-14T05:43:11.635Z,73.40
2022-10-14T05:47:17.465Z,61.53
2022-10-14T05:51:22.508Z,65.15
2022-10-14T05:55:29.335Z,68.70
2022-10-14T05:59:34.816Z,69.72
2022-10-14T06:03:36.889Z,60.88
2022-10-14T06:07:38.833Z,64.80
2022-10-14T06:11:40.841Z,65.65
2022-10-14T06:15:42.469Z,67.15
2022-10-14T06:19:44.607Z,69.93
2022-10-14T06:23:46.388Z,77.57
2022-10-14T06:27:48.207Z,74.47
2022-10-14T06:31:49.869Z,76.30
2022-10-14T06:35:51.967Z,74.63
2022-10-14T06:39:53.645Z,80.57
2022-10-14T06:43:55.702Z,80.50
2022-10-14T06:47:57.747Z,80.68
2022-10-14T06:51:59.632Z,84.63
2022-10-14T06:56:06.156Z,81.22
2022-10-14T07:00:08.886Z,83.55
2022-10-14T07:04:11.791Z,82.90
2022-10-14T07:08:15.546Z,89.07
2022-10-14T07:12:17.673Z,78.20
2022-10-14T07:16:19.532Z,81.05
2022-10-14T07:20:21.250Z,73.20
2022-10-14T07:24:24.001Z,77.47
2022-10-14T07:28:26.049Z,85.35
2022-10-14T07:32:28.080Z,79.40
2022-10-14T07:36:30.141Z,80.80
2022-10-14T07:40:32.050Z,67.75
2022-10-14T07:44:33.747Z,67.40
2022-10-14T07:48:52.674Z,64.32
2022-10-14T07:53:01.174Z,71.38
2022-10-14T07:57:04.159Z,65.90
2022-10-14T08:01:06.244Z,56.10
2022-10-14T08:05:32.875Z,63.92
2022-10-14T08:09:30.279Z,54.88
2022-10-14T08:13:33.114Z,59.28
2022-10-14T08:17:34.743Z,53.05
2022-10-14T08:21:36.764Z,50.78
2022-10-14T08:25:40.024Z,56.35
2022-10-14T08:29:41.953Z,56.60
2022-10-14T08:33:43.604Z,46.35
2022-10-14T08:37:45.632Z,59.53
2022-10-14T08:41:53.129Z,52.28
2022-10-14T08:46:04.652Z,49.55
2022-10-14T08:50:17.428Z,51.40
2022-10-14T08:54:29.892Z,55.63
2022-10-14T08:58:34.337Z,54.03
2022-10-14T09:02:45.998Z,60.10
2022-10-14T09:06:50.271Z,53.05
2022-10-14T09:10:52.308Z,58.72
2022-10-14T09:15:18.559Z,62.00
2022-10-14T09:19:37.196Z,62.58
2022-10-14T09:23:39.061Z,65.18
2022-10-14T09:27:41.793Z,56.08
2022-10-14T09:31:43.569Z,43.05
2022-10-14T09:35:45.965Z,39.70
2022-10-14T09:39:49.177Z,45.63
2022-10-14T09:44:21.243Z,34.05
2022-10-14T09:48:49.279Z,31.85
2022-10-14T09:52:55.523Z,37.45
2022-10-14T09:57:04.584Z,36.67
2022-10-14T10:01:12.842Z,33.70
2022-10-14T10:05:27.205Z,36.85
2022-10-14T10:09:29.066Z,30.25
2022-10-14T10:13:33.464Z,35.35
2022-10-14T10:17:40.519Z,35.28
2022-10-14T10:21:42.494Z,33.30
2022-10-14T10:25:44.382Z,29.73
2022-10-14T10:29:46.099Z,31.40
2022-10-14T10:34:03.106Z,29.90
2022-10-14T10:38:30.930Z,31.52
2022-10-14T10:42:45.836Z,35.40
2022-10-14T10:47:12.264Z,21.58
2022-10-14T10:51:34.559Z,30.45
2022-10-14T10:55:53.977Z,26.13
2022-10-14T11:00:01.712Z,29.70
2022-10-14T11:04:25.865Z,27.67
2022-10-14T11:09:01.647Z,34.10
2022-10-14T11:13:35.643Z,30.20
2022-10-14T11:17:45.445Z,31.08
2022-10-14T11:22:23.573Z,30.63
2022-10-14T11:26:46.878Z,35.55
2022-10-14T11:31:12.434Z,29.02
2022-10-14T11:35:59.221Z,29.25
2022-10-14T11:40:03.833Z,27.98
2022-10-14T11:48:51.337Z,35.75
2022-10-14T11:53:18.959Z,30.67
2022-10-14T11:57:56.622Z,29.17
2022-10-14T12:02:12.183Z,37.65
2022-10-14T12:06:22.529Z,27.40
2022-10-14T12:10:30.938Z,39.35
2022-10-14T12:14:36.080Z,34.70
2022-10-14T12:18:38.121Z,32.28
2022-10-14T12:22:39.867Z,32.20
2022-10-14T12:26:56.946Z,27.67
2022-10-14T12:31:23.532Z,31.55
2022-10-14T12:35:45.508Z,31.45
2022-10-14T12:39:47.364Z,29.30
2022-10-14T12:44:00.537Z,27.70
2022-10-14T12:48:15.877Z,36.83
2022-10-14T12:52:22.213Z,33.15
2022-10-14T12:56:44.278Z,31.30
2022-10-14T13:00:55.120Z,33.08
2022-10-14T13:04:56.981Z,32.70
2022-10-14T13:09:17.195Z,33.58
2022-10-14T13:13:41.863Z,32.33
2022-10-14T13:17:47.638Z,33.55
2022-10-14T13:21:52.607Z,39.08
2022-10-14T13:26:13.664Z,40.55
2022-10-14T13:30:32.980Z,34.08
2022-10-14T13:34:51.730Z,36.00
2022-10-14T13:38:57.719Z,42.30
2022-10-14T13:43:08.335Z,43.17
2022-10-14T13:47:14.376Z,40.67
2022-10-14T13:51:31.503Z,30.38
2022-10-14T13:55:51.627Z,35.25
2022-10-14T14:04:31.988Z,31.63
2022-10-14T14:08:40.390Z,28.33
2022-10-14T14:12:44.008Z,29.42
2022-10-14T14:16:58.384Z,37.38
2022-10-14T14:21:00.252Z,29.73
2022-10-14T14:25:38.157Z,38.78
2022-10-14T14:29:48.916Z,30.80
2022-10-14T14:33:51.343Z,32.28
2022-10-14T14:37:56.137Z,30.95
2022-10-14T14:42:00.713Z,32.47
2022-10-14T14:46:02.844Z,32.20
2022-10-14T14:50:28.988Z,31.48
2022-10-14T14:54:28.937Z,38.78
2022-10-14T14:58:38.564Z,38.00
2022-10-14T15:02:49.363Z,37.03
2022-10-14T15:07:18.742Z,35.42
2022-10-14T15:11:23.876Z,32.85
2022-10-14T15:15:27.831Z,37.17
2022-10-14T15:24:24.943Z,36.97
2022-10-14T15:28:31.734Z,33.03
2022-10-14T15:32:34.934Z,36.17
2022-10-14T15:42:30.286Z,43.50
2022-10-14T15:46:52.969Z,39.88
2022-10-14T15:50:54.585Z,37.97
2022-10-14T15:54:57.772Z,43.03
2022-10-14T15:58:59.564Z,48.40
2022-10-14T16:03:03.650Z,51.05
2022-10-14T16:07:06.467Z,46.28
2022-10-14T16:11:19.762Z,44.13
2022-10-14T16:15:32.169Z,48.47
2022-10-14T16:19:34.071Z,50.47
2022-10-14T16:23:40.138Z,50.28
2022-10-14T16:27:42.399Z,54.47
2022-10-14T16:31:49.961Z,54.25
2022-10-14T16:35:54.550Z,46.25
2022-10-14T16:39:56.298Z,50.03
2022-10-14T16:43:58.245Z,46.03
2022-10-14T16:47:59.866Z,52.30
2022-10-14T16:52:01.807Z,46.72
2022-10-14T16:56:24.802Z,46.72
2022-10-14T17:00:26.680Z,53.28
2022-10-14T17:04:28.532Z,45.88
2022-10-14T17:08:33.066Z,45.22
2022-10-14T17:12:34.922Z,48.17
2022-10-14T17:16:36.966Z,51.28
2022-10-14T17:20:38.661Z,48.75
2022-10-14T17:24:40.464Z,56.47
2022-10-14T17:28:45.114Z,54.22
2022-10-14T17:32:47.223Z,57.25
2022-10-14T17:36:49.264Z,51.35
2022-10-14T17:40:51.471Z,60.38
2022-10-14T17:44:54.261Z,62.08
2022-10-14T17:48:59.112Z,56.45
2022-10-14T17:53:00.980Z,54.70
2022-10-14T17:57:02.952Z,59.13
2022-10-14T18:01:11.133Z,55.55
2022-10-14T18:05:13.754Z,56.60
2022-10-14T18:09:15.545Z,61.92
2022-10-14T18:13:17.359Z,64.57
2022-10-14T18:17:19.259Z,65.50
2022-10-14T18:21:21.499Z,61.28
2022-10-14T18:25:23.565Z,59.50
2022-10-14T18:29:25.502Z,67.72
2022-10-14T18:33:27.265Z,64.88
2022-10-14T18:37:29.073Z,66.28
2022-10-14T18:41:31.286Z,64.07
2022-10-14T18:45:34.691Z,66.10
2022-10-14T18:49:39.928Z,74.20
2022-10-14T18:53:44.942Z,60.55
2022-10-14T18:57:46.645Z,65.00
2022-10-14T19:01:52.044Z,63.60
2022-10-14T19:05:58.001Z,67.75
2022-10-14T19:09:59.904Z,68.30
2022-10-14T19:14:05.391Z,76.93
2022-10-14T19:18:07.511Z,68.88
2022-10-14T19:22:10.531Z,72.18
2022-10-14T19:26:21.281Z,67.95
2022-10-14T19:30:22.918Z,73.82
2022-10-14T19:34:27.324Z,73.85
2022-10-14T19:38:29.339Z,67.50
2022-10-14T19:42:31.175Z,73.93
2022-10-14T19:46:33.095Z,73.90
2022-10-14T19:50:35.062Z,79.95
2022-10-14T19:54:36.704Z,77.90
2022-10-14T19:58:43.787Z,100.85
2022-10-14T20:02:49.453Z,94.43
2022-10-14T20:06:51.366Z,85.68
2022-10-14T20:10:53.515Z,84.07
2022-10-14T20:14:56.002Z,89.07
2022-10-14T20:18:57.839Z,87.70
2022-10-14T20:22:59.713Z,91.57
2022-10-14T20:27:01.753Z,82.38
2022-10-14T20:31:07.032Z,78.60
2022-10-14T20:35:14.138Z,78.80
2022-10-14T20:39:16.851Z,80.25
2022-10-14T20:43:18.631Z,84.50
2022-10-14T20:47:20.999Z,75.20
2022-10-14T20:51:23.350Z,70.97
2022-10-14T20:55:25.524Z,87.82
2022-10-14T20:59:27.418Z,119.50
2022-10-14T21:03:29.777Z,122.22
2022-10-14T21:07:31.455Z,95.90
2022-10-14T21:11:33.521Z,93.72
2022-10-14T21:15:35.195Z,85.38
2022-10-14T21:19:37.169Z,88.20
2022-10-14T21:23:39.126Z,85.35
2022-10-14T21:27:40.995Z,86.05
2022-10-14T21:31:43.149Z,88.68
2022-10-14T21:35:45.187Z,80.82
2022-10-14T21:39:46.933Z,93.32
2022-10-14T21:43:48.974Z,97.43
2022-10-14T21:47:52.852Z,106.20
2022-10-14T21:51:54.756Z,97.13
2022-10-14T21:55:56.453Z,109.65
2022-10-14T21:59:58.420Z,104.50
2022-10-14T22:04:05.597Z,119.47
2022-10-14T22:08:07.457Z,119.40
2022-10-14T22:12:09.511Z,118.45
2022-10-14T22:16:13.523Z,103.03
2022-10-14T22:20:15.533Z,112.53
2022-10-14T22:24:17.662Z,117.57
2022-10-14T22:28:19.386Z,122.30
2022-10-14T22:32:21.378Z,98.68
2022-10-14T22:36:28.249Z,90.18
2022-10-14T22:40:30.148Z,109.43
2022-10-14T22:44:31.779Z,106.65
2022-10-14T22:48:35.260Z,110.28
2022-10-14T22:52:37.371Z,115.85
2022-10-14T22:56:39.520Z,107.35
2022-10-14T23:00:41.237Z,105.47
2022-10-14T23:04:43.082Z,104.50
2022-10-14T23:08:45.342Z,122.97
2022-10-14T23:12:47.564Z,139.07
2022-10-14T23:16:49.263Z,120.07
2022-10-14T23:20:51.194Z,114.25
2022-10-14T23:24:52.960Z,133.05
2022-10-14T23:28:57.666Z,117.78
2022-10-14T23:32:59.531Z,103.13
2022-10-14T23:37:01.681Z,116.45
2022-10-14T23:41:04.744Z,134.75
2022-10-14T23:45:07.278Z,122.47
2022-10-14T23:49:25.117Z,115.85
2022-10-14T23:53:28.444Z,155.55
2022-10-14T23:57:30.096Z,142.88
